Time;durP1;ratioP1;P1;durP2;ratioP2;P2;SDS_P1;SDS_P2;PMS_P1;PMS_P2;Temp;Humidity;BMP_temperature;BMP_pressure;BME280_temperature;BME280_humidity;BME280_pressure;Samples;Min_cycle;Max_cycle;Signal;HPM_P1;HPM_P2
2021/10/20 00:00:30;;;;;;;;;;;;;;;-142.75;100.00;76310.47;5031636;28;20025;-70
2021/10/20 00:02:55;;;;;;;9.70;6.15;;;;;;;-142.75;100.00;76302.59;5031696;28;19959;-70
2021/10/20 00:05:20;;;;;;;;;;;;;;;-142.75;100.00;76304.56;5031788;28;20053;-69
2021/10/20 00:07:46;;;;;;;11.90;6.85;;;;;;;-142.75;100.00;76298.66;5013729;28;19952;-70
2021/10/20 00:10:12;;;;;;;;;;;;;;;-142.75;100.00;76296.69;5031565;28;20487;-68
2021/10/20 00:12:38;;;;;;;10.43;6.55;;;;;;;-142.75;100.00;76292.75;5031364;28;19921;-70
2021/10/20 00:15:06;;;;;;;10.05;6.50;;;;;;;-142.75;100.00;76282.91;5031286;28;20364;-70
2021/10/20 00:17:33;;;;;;;11.45;6.15;;;;;;;-142.75;100.00;76271.09;5031283;28;20057;-70
2021/10/20 00:20:05;;;;;;;9.55;6.13;;;;;;;-142.75;100.00;76263.22;5030861;28;20112;-69
2021/10/20 00:22:31;;;;;;;11.13;7.32;;;;;;;-142.75;100.00;76247.47;4993625;28;20026;-70
2021/10/20 00:24:56;;;;;;;;;;;;;;;-142.75;100.00;76245.50;5011669;28;20036;-70
2021/10/20 00:27:21;;;;;;;9.95;6.18;;;;;;;-142.75;100.00;76237.63;4993585;28;19961;-70
2021/10/20 00:29:47;;;;;;;;;;;;;;;-142.75;100.00;76215.97;5011640;28;20040;-69
2021/10/20 00:32:12;;;;;;;11.30;5.88;;;;;;;-142.75;100.00;76223.84;4993884;28;20349;-70
2021/10/20 00:34:37;;;;;;;;;;;;;;;-142.75;100.00;76212.03;5011189;28;20026;-70
2021/10/20 00:37:02;;;;;;;10.43;6.25;;;;;;;-142.75;100.00;76196.31;4993660;28;20393;-70
2021/10/20 00:39:28;;;;;;;;;;;;;;;-142.75;100.00;76196.31;5012118;28;20083;-70
2021/10/20 00:41:53;;;;;;;8.60;6.43;;;;;;;-142.75;100.00;76180.56;5010812;28;19920;-70
2021/10/20 00:44:19;;;;;;;;;;;;;;;-142.75;100.00;76174.66;5011299;28;20075;-70
2021/10/20 00:46:44;;;;;;;12.60;7.30;;;;;;;-142.75;100.00;76176.63;4993302;28;19913;-69
2021/10/20 00:49:09;;;;;;;;;;;;;;;-142.75;100.00;76170.72;4993853;28;20109;-69
2021/10/20 00:51:35;;;;;;;12.15;6.72;;;;;;;-142.75;100.00;76172.69;5010696;28;20295;-70
2021/10/20 00:54:00;;;;;;;;;;;;;;;-142.75;100.00;76160.88;5011054;28;20026;-70
2021/10/20 00:56:26;;;;;;;9.60;6.30;;;;;;;-142.75;100.00;76192.38;5010602;28;19924;-69
2021/10/20 00:58:52;;;;;;;12.93;6.75;;;;;;;-142.75;100.00;76186.47;5010994;28;20510;-71
2021/10/20 01:01:17;;;;;;;;;;;;;;;-142.75;100.00;76170.72;5011234;28;20026;-70
2021/10/20 01:03:44;;;;;;;13.38;7.45;;;;;;;-142.75;100.00;76166.78;5010660;28;19917;-71
2021/10/20 01:06:10;;;;;;;10.75;6.95;;;;;;;-142.75;100.00;76172.69;5010766;28;20018;-70
2021/10/20 01:08:35;;;;;;;;;;;;;;;-142.75;100.00;76180.56;5011643;28;20433;-70
2021/10/20 01:11:01;;;;;;;11.15;7.10;;;;;;;-142.75;100.00;76166.78;5010452;28;19913;-70
2021/10/20 01:13:26;;;;;;;;;;;;;;;-142.75;100.00;76162.84;4993599;28;20399;-70
2021/10/20 01:15:51;;;;;;;12.23;7.65;;;;;;;-142.75;100.00;76162.84;5010255;28;19973;-70
2021/10/20 01:18:16;;;;;;;;;;;;;;;-142.75;100.00;76156.94;4993448;28;20052;-70
2021/10/20 01:20:43;;;;;;;12.80;7.40;;;;;;;-142.75;100.00;76176.63;4990609;28;20001;-70
2021/10/20 01:23:08;;;;;;;12.07;7.03;;;;;;;-142.75;100.00;76164.81;5010506;28;20117;-70
2021/10/20 01:25:33;;;;;;;;;;;;;;;-142.75;100.00;76156.94;4993054;28;20151;-70
2021/10/20 01:27:59;;;;;;;15.85;7.57;;;;;;;-142.75;100.00;76151.03;5010579;28;19921;-70
2021/10/20 01:30:24;;;;;;;;;;;;;;;-142.75;100.00;76164.81;5010749;28;20076;-71
2021/10/20 01:32:49;;;;;;;10.30;7.15;;;;;;;-142.75;100.00;76160.88;4992745;28;20371;-69
2021/10/20 01:35:15;;;;;;;;;;;;;;;-142.75;100.00;76172.69;5010619;28;20119;-69
2021/10/20 01:37:40;;;;;;;12.60;7.93;;;;;;;-142.75;100.00;76160.88;4992550;28;20406;-69
2021/10/20 01:40:06;;;;;;;;;;;;;;;-142.75;100.00;76158.91;5011288;28;20419;-69
2021/10/20 01:42:32;;;;;;;9.82;7.13;;;;;;;-142.75;100.00;76160.88;5010122;28;20379;-69
2021/10/20 01:44:57;;;;;;;;;;;;;;;-142.75;100.00;76158.91;5010363;28;20060;-70
2021/10/20 01:47:23;;;;;;;12.18;8.07;;;;;;;-142.75;100.00;76156.94;4992765;28;19914;-70
2021/10/20 01:49:48;;;;;;;;;;;;;;;-142.75;100.00;76149.06;5020361;28;20399;-69
2021/10/20 01:52:14;;;;;;;11.73;7.40;;;;;;;-142.75;100.00;76137.25;5014779;28;19920;-70
2021/10/20 01:54:39;;;;;;;;;;;;;;;-142.75;100.00;76127.41;5000650;28;20034;-71
2021/10/20 01:57:04;;;;;;;14.05;7.95;;;;;;;-142.75;100.00;76139.22;5019036;28;20359;-70
2021/10/20 01:59:30;;;;;;;;;;;;;;;-142.75;100.00;76135.28;5000515;28;20026;-70
2021/10/20 02:01:56;;;;;;;14.02;8.02;;;;;;;-142.75;100.00;76127.41;5021606;28;20000;-71
2021/10/20 02:04:21;;;;;;;;;;;;;;;-142.75;100.00;76115.59;5020347;28;20021;-70
2021/10/20 02:06:46;;;;;;;12.00;7.47;;;;;;;-142.75;100.00;76117.56;5023091;28;19913;-70
2021/10/20 02:09:11;;;;;;;;;;;;;;;-142.75;100.00;76107.72;5026618;28;20433;-70
2021/10/20 02:11:38;;;;;;;14.00;8.30;;;;;;;-142.75;100.00;76105.75;5015639;28;19920;-71
2021/10/20 02:14:05;;;;;;;12.98;7.85;;;;;;;-142.75;100.00;76097.88;5024623;28;20057;-71
2021/10/20 02:16:31;;;;;;;13.48;8.35;;;;;;;-142.75;100.00;76103.78;5005147;28;20112;-70
2021/10/20 02:18:56;;;;;;;;;;;;;;;-142.75;100.00;76090.00;5025156;28;20531;-70
2021/10/20 02:21:21;;;;;;;14.63;7.75;;;;;;;-142.75;100.00;76103.78;5001320;28;19962;-70
2021/10/20 02:23:49;;;;;;;;;;;;;;;-142.75;100.00;76070.34;5020501;28;20056;-69
2021/10/20 02:26:14;;;;;;;14.10;8.90;;;;;;;-142.75;100.00;76078.19;5001665;28;20435;-69
2021/10/20 02:28:40;;;;;;;;;;;;;;;-142.75;100.00;76097.88;4992517;28;20026;-67
2021/10/20 02:31:05;;;;;;;13.40;8.77;;;;;;;-142.75;100.00;76074.25;4992354;28;19996;-69
2021/10/20 02:33:30;;;;;;;;;;;;;;;-142.75;100.00;76074.25;5013828;28;20026;-70
2021/10/20 02:35:55;;;;;;;13.15;8.93;;;;;;;-142.75;100.00;76072.31;5012987;28;20275;-69
2021/10/20 02:38:21;;;;;;;;;;;;;;;-142.75;100.00;76076.22;5014063;28;20029;-70
2021/10/20 02:40:46;;;;;;;14.60;8.18;;;;;;;-142.75;100.00;76074.25;5013937;28;19913;-70
2021/10/20 02:43:11;;;;;;;;;;;;;;;-142.75;100.00;76060.50;5013816;28;20080;-69
2021/10/20 02:45:36;;;;;;;15.05;9.50;;;;;;;-142.75;100.00;76066.41;5013035;28;19917;-69
2021/10/20 02:48:02;;;;;;;;;;;;;;;-142.75;100.00;76054.59;5013887;28;20029;-70
2021/10/20 02:50:30;;;;;;;13.00;8.75;;;;;;;-142.75;100.00;76050.66;5011191;28;19923;-70
2021/10/20 02:52:57;;;;;;;13.50;9.23;;;;;;;-142.75;100.00;76040.81;5013070;28;20025;-70
2021/10/20 02:55:22;;;;;;;15.30;9.23;;;;;;;-142.75;100.00;76040.81;5012588;28;20036;-70
2021/10/20 02:57:48;;;;;;;;;;;;;;;-142.75;100.00;76044.75;4996008;28;20034;-70
2021/10/20 03:00:13;;;;;;;13.88;9.52;;;;;;;-142.75;100.00;76046.72;5012935;28;19996;-69
2021/10/20 03:02:39;;;;;;;;;;;;;;;-142.75;100.00;76050.66;5013415;28;20096;-69
2021/10/20 03:05:05;;;;;;;17.23;9.80;;;;;;;-142.75;100.00;76050.66;5012675;28;19913;-69
2021/10/20 03:07:31;;;;;;;;;;;;;;;-142.75;100.00;76046.72;5013316;28;20468;-70
2021/10/20 03:09:56;;;;;;;12.82;9.70;;;;;;;-142.75;100.00;76046.72;5013289;28;19913;-69
2021/10/20 03:12:21;;;;;;;;;;;;;;;-142.75;100.00;76040.81;5013414;28;20033;-68
2021/10/20 03:14:47;;;;;;;15.07;9.65;;;;;;;-142.75;100.00;76034.91;5012608;28;19921;-69
2021/10/20 03:17:14;;;;;;;;;;;;;;;-142.75;100.00;76030.97;5013266;28;20068;-69
2021/10/20 03:19:39;;;;;;;17.88;10.23;;;;;;;-142.75;100.00;76038.84;5012612;28;20008;-67
2021/10/20 03:22:04;;;;;;;;;;;;;;;-142.75;100.00;76023.09;4993552;28;20124;-69
2021/10/20 03:24:30;;;;;;;14.70;10.07;;;;;;;-142.75;100.00;76042.78;4994782;28;19920;-70
2021/10/20 03:26:55;;;;;;;;;;;;;;;-142.75;100.00;76029.00;5013104;28;20022;-70
2021/10/20 03:29:20;;;;;;;16.50;10.73;;;;;;;-142.75;100.00;76030.97;5012322;28;20452;-69
2021/10/20 03:31:45;;;;;;;;;;;;;;;-142.75;100.00;76027.03;4993840;28;20462;-69
2021/10/20 03:34:10;;;;;;;17.70;9.90;;;;;;;-142.75;100.00;76027.03;5012018;28;19920;-69
2021/10/20 03:36:36;;;;;;;;;;;;;;;-142.75;100.00;76025.06;4995108;28;20029;-70
2021/10/20 03:39:01;;;;;;;15.07;10.48;;;;;;;-142.75;100.00;76017.19;5012873;28;20379;-70
2021/10/20 03:41:26;;;;;;;;;;;;;;;-142.75;100.00;76023.09;4995179;28;20033;-69
2021/10/20 03:43:52;;;;;;;14.38;9.48;;;;;;;-142.75;100.00;76017.19;4993372;28;20303;-69
2021/10/20 03:46:17;;;;;;;;;;;;;;;-142.75;100.00;76019.16;5012704;28;20045;-69
2021/10/20 03:48:42;;;;;;;15.30;9.55;;;;;;;-142.75;100.00;76013.25;4994685;28;19966;-70
2021/10/20 03:51:07;;;;;;;;;;;;;;;-142.75;100.00;76007.34;5029486;22;20348;-67
2021/10/20 03:53:33;;;;;;;15.95;9.50;;;;;;;-142.75;100.00;76011.28;5010771;28;20046;-67
2021/10/20 03:55:58;;;;;;;;;;;;;;;-142.75;100.00;76011.28;5011048;28;20033;-67
2021/10/20 03:58:24;;;;;;;14.23;9.57;;;;;;;-142.75;100.00;76001.44;5011851;28;20338;-67
2021/10/20 04:00:50;;;;;;;;;;;;;;;-142.75;100.00;75993.56;5011191;28;20040;-67
2021/10/20 04:03:15;;;;;;;12.80;8.75;;;;;;;-142.75;100.00;76003.41;5011814;28;19960;-67
2021/10/20 04:05:41;;;;;;;;;;;;;;;-142.75;100.00;76007.34;5011934;28;20053;-67
2021/10/20 04:08:06;;;;;;;16.20;8.65;;;;;;;-142.75;100.00;75987.66;5011631;28;19941;-67
2021/10/20 04:10:31;;;;;;;;;;;;;;;-142.75;100.00;75973.88;5012849;28;20092;-67
2021/10/20 04:12:56;;;;;;;;;;;;;;;-142.75;100.00;75973.88;5012230;28;19913;-68
2021/10/20 04:15:24;;;;;;;;;;;;;;;-142.75;100.00;75966.00;5011577;28;19919;-67
2021/10/20 04:17:49;;;;;;;;;;;;;;;-142.75;100.00;75950.28;5011807;28;19924;-67
2021/10/20 04:20:16;;;;;;;;;;;;;;;-142.75;100.00;75936.50;5011895;28;19914;-67
2021/10/20 04:22:42;;;;;;;;;;;;;;;-142.75;100.00;75928.63;5010691;28;19921;-67
2021/10/20 04:25:07;;;;;;;;;;;;;;;-142.75;100.00;75914.84;5011493;28;19913;-67
2021/10/20 04:27:33;;;;;;;;;;;;;;;-142.75;100.00;75924.69;5011809;28;20497;-67
2021/10/20 04:29:59;;;;;;;;;;;;;;;-142.75;100.00;75914.84;5011987;28;20004;-67
2021/10/20 04:32:24;;;;;;;;;;;;;;;-142.75;100.00;75922.72;5011685;28;19913;-67
2021/10/20 04:34:50;;;;;;;;;;;;;;;-142.75;100.00;75912.88;5011393;28;19913;-67
2021/10/20 04:37:16;;;;;;;;;;;;;;;-142.75;100.00;75912.88;5011678;28;19917;-67
2021/10/20 04:39:42;;;;;;;;;;;;;;;-142.75;100.00;75906.97;5012119;28;19945;-67
2021/10/20 04:42:07;;;;;;;;;;;;;;;-142.75;100.00;75908.94;5011454;28;20600;-66
2021/10/20 04:44:32;;;;;;;;;;;;;;;-142.75;100.00;75916.81;5011172;28;19983;-67
2021/10/20 04:46:57;;;;;;;;;;;;;;;-142.75;100.00;75914.84;5010149;28;20011;-67
2021/10/20 04:49:22;;;;;;;;;;;;;;;-142.75;100.00;75901.06;4999511;28;19920;-67
2021/10/20 04:51:48;;;;;;;;;;;;;;;-142.75;100.00;75905.00;4991509;28;19914;-66
2021/10/20 04:54:13;;;;;;;;;;;;;;;-142.75;100.00;75903.03;4991414;28;19919;-67
2021/10/20 04:56:39;;;;;;;;;;;;;;;-142.75;100.00;75899.09;4991920;28;19922;-67
2021/10/20 04:59:04;;;;;;;;;;;;;;;-142.75;100.00;75908.94;4991763;28;19914;-67
2021/10/20 05:01:29;;;;;;;;;;;;;;;-142.75;100.00;75916.81;4991720;28;19917;-67
2021/10/20 05:03:54;;;;;;;;;;;;;;;-142.75;100.00;75908.94;4990095;28;19921;-67
2021/10/20 05:06:19;;;;;;;;;;;;;;;-142.75;100.00;75905.00;4991719;28;19998;-67
2021/10/20 05:08:44;;;;;;;;;;;;;;;-142.75;100.00;75910.91;4991894;28;20387;-67
2021/10/20 05:11:10;;;;;;;;;;;;;;;-142.75;100.00;75916.81;4991912;28;19918;-67
2021/10/20 05:13:35;;;;;;;;;;;;;;;-142.75;100.00;75903.03;4991490;28;19913;-67
2021/10/20 05:16:00;;;;;;;;;;;;;;;-142.75;100.00;75897.13;4991182;28;20302;-67
2021/10/20 05:18:25;;;;;;;;;;;;;;;-142.75;100.00;75897.13;4991599;28;19914;-67
2021/10/20 05:20:50;;;;;;;;;;;;;;;-142.75;100.00;75891.22;4991248;28;20584;-67
2021/10/20 05:23:16;;;;;;;;;;;;;;;-142.75;100.00;75887.28;4991373;28;19914;-67
2021/10/20 05:25:41;;;;;;;;;;;;;;;-142.75;100.00;75905.00;4991011;28;20004;-67
2021/10/20 05:28:07;;;;;;;;;;;;;;;-142.75;100.00;75883.34;4991420;28;19968;-67
2021/10/20 05:30:32;;;;;;;;;;;;;;;-142.75;100.00;75891.22;4991377;28;19914;-67
2021/10/20 05:32:58;;;;;;;;;;;;;;;-142.75;100.00;75873.50;4991196;28;19960;-67
2021/10/20 05:35:23;;;;;;;;;;;;;;;-142.75;100.00;75881.38;4990805;28;19917;-67
2021/10/20 05:37:50;;;;;;;;;;;;;;;-142.75;100.00;75881.38;4991037;28;20438;-67
2021/10/20 05:40:16;;;;;;;;;;;;;;;-142.75;100.00;75893.19;4991163;28;19928;-67
2021/10/20 05:42:41;;;;;;;;;;;;;;;-142.75;100.00;75881.38;4989105;28;19918;-67
2021/10/20 05:45:06;;;;;;;;;;;;;;;-142.75;100.00;75901.06;4990278;28;19945;-66
2021/10/20 05:47:32;;;;;;;;;;;;;;;-142.75;100.00;75895.16;4990541;28;19964;-68
2021/10/20 05:49:57;;;;;;;;;;;;;;;-142.75;100.00;75910.91;4990689;28;21956;-67
2021/10/20 05:52:22;;;;;;;;;;;;;;;-142.75;100.00;75914.84;4990070;28;19914;-67
2021/10/20 05:54:47;;;;;;;;;;;;;;;-142.75;100.00;75893.19;4990299;28;19921;-67
2021/10/20 05:57:12;;;;;;;;;;;;;;;-142.75;100.00;75883.34;4990375;28;20338;-67
2021/10/20 05:59:37;;;;;;;;;;;;;;;-142.75;100.00;75889.25;4990572;28;20427;-67
2021/10/20 06:02:03;;;;;;;;;;;;;;;-142.75;100.00;75883.34;4990281;28;20045;-68
2021/10/20 06:04:28;;;;;;;;;;;;;;;-142.75;100.00;75861.69;4990232;28;19914;-66
2021/10/20 06:06:53;;;;;;;;;;;;;;;-142.75;100.00;75851.88;4991423;28;20015;-68
2021/10/20 06:09:18;;;;;;;;;;;;;;;-142.75;100.00;75863.66;4994940;28;20056;-67
2021/10/20 06:11:44;;;;;;;;;;;;;;;-142.75;100.00;75849.91;4993269;28;19968;-67
2021/10/20 06:14:09;;;;;;;;;;;;;;;-142.75;100.00;75836.13;4994508;28;19936;-67
2021/10/20 06:16:36;;;;;;;;;;;;;;;-142.75;100.00;75847.94;4993573;28;20007;-67
2021/10/20 06:19:04;;;;;;;;;;;;;;;-142.75;100.00;75844.00;4993234;28;19914;-67
2021/10/20 06:21:30;;;;;;;;;;;;;;;-142.75;100.00;75826.28;4994110;28;19997;-67
2021/10/20 06:23:55;;;;;;;;;;;;;;;-142.75;100.00;75826.28;5013516;28;19917;-67
2021/10/20 06:26:21;;;;;;;;;;;;;;;-142.75;100.00;75844.00;5013845;28;20433;-67
2021/10/20 06:28:46;;;;;;;;;;;;;;;-142.75;100.00;75838.09;5013921;28;19960;-67
2021/10/20 06:31:11;;;;;;;;;;;;;;;-142.75;100.00;75857.78;5013742;28;20334;-67
2021/10/20 06:33:36;;;;;;;;;;;;;;;-142.75;100.00;75877.44;5013762;28;19921;-67
2021/10/20 06:36:02;;;;;;;;;;;;;;;-142.75;100.00;75877.44;5013299;28;20301;-66
2021/10/20 06:38:28;;;;;;;;;;;;;;;-142.75;100.00;75891.22;5014006;28;20562;-67
2021/10/20 06:40:53;;;;;;;;;;;;;;;-142.75;100.00;75906.97;5013565;28;20016;-67
2021/10/20 06:43:18;;;;;;;;;;;;;;;-142.75;100.00;75924.69;5013451;28;20004;-66
2021/10/20 06:45:43;;;;;;;;;;;;;;;-142.75;100.00;75944.38;5012705;28;19917;-66
2021/10/20 06:48:08;;;;;;;;;;;;;;;-142.75;100.00;75944.38;5004829;28;19913;-66
2021/10/20 06:50:34;;;;;;;;;;;;;;;-142.75;100.00;75958.16;5011072;28;19922;-65
2021/10/20 06:52:59;;;;;;;;;;;;;;;-142.75;100.00;75979.78;4999809;28;19921;-65
2021/10/20 06:55:24;;;;;;;;;;;;;;;-142.75;100.00;75967.97;5010980;28;20397;-65
2021/10/20 06:57:49;;;;;;;;;;;;;;;-142.75;100.00;75967.97;5001795;28;19925;-65
2021/10/20 07:00:16;;;;;;;;;;;;;;;-142.75;100.00;75962.09;5012629;28;19923;-66
2021/10/20 07:02:41;;;;;;;;;;;;;;;-142.75;100.00;75964.03;5002417;28;19925;-66
2021/10/20 07:05:06;;;;;;;;;;;;;;;-142.75;100.00;75958.16;4992822;28;20375;-67
2021/10/20 07:07:32;;;;;;;;;;;;;;;-142.75;100.00;75960.13;4995908;28;19920;-66
2021/10/20 07:09:57;;;;;;;;;;;;;;;-142.75;100.00;75940.44;5010864;28;19924;-66
2021/10/20 07:12:23;;;;;;;;;;;;;;;-142.75;100.00;75936.50;5011793;28;19920;-66
2021/10/20 07:14:48;;;;;;;;;;;;;;;-142.75;100.00;75930.59;5011201;28;19914;-67
2021/10/20 07:17:13;;;;;;;;;;;;;;;-142.75;100.00;75928.63;5011969;28;19924;-66
2021/10/20 07:19:38;;;;;;;;;;;;;;;-142.75;100.00;75932.56;5010303;28;19913;-66
2021/10/20 07:22:05;;;;;;;;;;;;;;;-142.75;100.00;75928.63;5011987;28;19928;-68
2021/10/20 07:24:30;;;;;;;;;;;;;;;-142.75;100.00;75936.50;5010586;28;19971;-65
2021/10/20 07:26:56;;;;;;;;;;;;;;;-142.75;100.00;75932.56;5012389;28;19921;-66
2021/10/20 07:29:21;;;;;;;;;;;;;;;-142.75;100.00;75942.41;5011617;28;19914;-67
2021/10/20 07:31:46;;;;;;;;;;;;;;;-142.75;100.00;75948.31;5012051;28;19913;-66
2021/10/20 07:34:11;;;;;;;;;;;;;;;-142.75;100.00;75924.69;5011805;28;19913;-66
2021/10/20 07:36:38;;;;;;;;;;;;;;;-142.75;100.00;75901.06;5011426;28;19918;-66
2021/10/20 07:39:03;;;;;;;;;;;;;;;-142.75;100.00;75905.00;5011976;28;19920;-66
2021/10/20 07:41:28;;;;;;;;;;;;;;;-142.75;100.00;75873.50;5012941;28;19921;-65
2021/10/20 07:43:53;;;;;;;;;;;;;;;-142.75;100.00;75887.28;5011840;28;19991;-66
2021/10/20 07:46:19;;;;;;;;;;;;;;;-142.75;100.00;75881.38;5012358;28;19920;-67
2021/10/20 07:48:44;;;;;;;;;;;;;;;-142.75;100.00;75908.94;5012432;28;19913;-66
2021/10/20 07:51:09;;;;;;;;;;;;;;;-142.75;100.00;75885.31;5007133;28;19941;-66
2021/10/20 07:53:34;;;;;;;;;;;;;;;-142.75;100.00;75889.25;4992863;28;19919;-66
2021/10/20 07:55:59;;;;;;;;;;;;;;;-142.75;100.00;75885.31;4991085;28;19917;-66
2021/10/20 07:58:24;;;;;;;;;;;;;;;-142.75;100.00;75871.53;4992594;28;20000;-65
2021/10/20 08:00:50;;;;;;;;;;;;;;;-142.75;100.00;75877.44;4992505;28;19929;-64
2021/10/20 08:03:15;;;;;;;;;;;;;;;-142.75;100.00;75881.38;4992486;28;19983;-67
2021/10/20 08:05:40;;;;;;;;;;;;;;;-142.75;100.00;75893.19;4992011;28;19918;-66
2021/10/20 08:08:09;;;;;;;;;;;;;;;-142.75;100.00;75857.78;4992510;28;19921;-66
2021/10/20 08:10:34;;;;;;;;;;;;;;;-142.75;100.00;75810.53;5000810;28;19924;-66
2021/10/20 08:13:00;;;;;;;;;;;;;;;-142.75;100.00;75796.75;5011435;28;20529;-67
2021/10/20 08:15:25;;;;;;;;;;;;;;;-142.75;100.00;75790.84;5011579;28;19913;-65
2021/10/20 08:17:51;;;;;;;;;;;;;;;-142.75;100.00;75755.44;5011799;28;19921;-65
2021/10/20 08:20:18;;;;;;;;;;;;;;;-142.75;100.00;75739.69;5010539;28;20359;-65
2021/10/20 08:22:44;;;;;;;;;;;;;;;-142.75;100.00;75694.41;5011873;28;19913;-65
2021/10/20 08:25:09;;;;;;;;;;;;;;;-142.75;100.00;75702.28;5011261;28;19913;-66
2021/10/20 08:27:35;;;;;;;;;;;;;;;-142.75;100.00;75702.28;5011788;28;20401;-66
2021/10/20 08:30:00;;;;;;;;;;;;;;;-142.75;100.00;75704.25;5011147;28;20016;-66
2021/10/20 08:32:26;;;;;;;;;;;;;;;-142.75;100.00;75702.28;5011579;28;20418;-66
2021/10/20 08:34:52;;;;;;;;;;;;;;;-142.75;100.00;75712.13;5011039;28;19913;-67
2021/10/20 08:37:17;;;;;;;;;;;;;;;-142.75;100.00;75708.19;5011347;28;19928;-66
2021/10/20 08:39:43;;;;;;;;;;;;;;;-142.75;100.00;75723.94;5011358;28;19913;-66
2021/10/20 08:42:08;;;;;;;;;;;;;;;-142.75;100.00;75704.25;5011422;28;19913;-66
2021/10/20 08:44:33;;;;;;;;;;;;;;;-142.75;100.00;75708.19;5010619;28;19917;-66
2021/10/20 08:46:59;;;;;;;;;;;;;;;-142.75;100.00;75682.59;5011079;28;19995;-66
2021/10/20 08:49:25;;;;;;;;;;;;;;;-142.75;100.00;75647.19;5011301;28;19920;-66
2021/10/20 08:51:50;;;;;;;;;;;;;;;-142.75;100.00;75635.38;5010854;28;20397;-66
2021/10/20 08:54:15;;;;;;;;;;;;;;;-142.75;100.00;75647.19;5011082;28;19913;-66
2021/10/20 08:56:44;;;;;;;;;;;;;;;-142.75;100.00;75657.03;5011115;28;19922;-66
2021/10/20 08:59:09;;;;;;;;;;;;;;;-142.75;100.00;75672.78;5011165;28;19913;-66
2021/10/20 09:01:34;;;;;;;;;;;;;;;-142.75;100.00;75684.56;5011179;28;19913;-66
2021/10/20 09:04:02;;;;;;;;;;;;;;;-142.75;100.00;75694.41;5011075;28;19917;-65
2021/10/20 09:06:28;;;;;;;;;;;;;;;-142.75;100.00;75688.50;5010571;28;19920;-65
2021/10/20 09:08:54;;;;;;;;;;;;;;;-142.75;100.00;75700.31;5011251;28;20298;-65
2021/10/20 09:11:29;;;;;;;;;;;;;;;-142.75;100.00;75690.47;5000980;28;19917;-65
2021/10/20 09:14:05;;;;;;;;;;;;;;;-142.75;100.00;75708.19;5010622;28;20354;-66
2021/10/20 09:16:32;;;;;;;;;;;;;;;-142.75;100.00;75692.44;5010611;28;19932;-66
2021/10/20 09:18:58;;;;;;;;;;;;;;;-142.75;100.00;75696.38;5010824;28;19913;-66
2021/10/20 09:21:24;;;;;;;;;;;;;;;-142.75;100.00;75700.31;5009213;28;19913;-65
2021/10/20 09:23:49;;;;;;;;;;;;;;;-142.75;100.00;75696.38;5010506;28;19917;-66
2021/10/20 09:26:14;;;;;;;;;;;;;;;-142.75;100.00;75690.47;5010838;28;19944;-66
2021/10/20 09:28:40;;;;;;;;;;;;;;;-142.75;100.00;75684.56;5010187;28;20051;-65
2021/10/20 09:31:07;;;;;;;;;;;;;;;-142.75;100.00;75680.63;5010623;28;20000;-66
2021/10/20 09:33:33;;;;;;;;;;;;;;;-142.75;100.00;75690.47;5010867;28;19913;-66
2021/10/20 09:36:09;;;;;;;;;;;;;;;-142.75;100.00;75684.56;5010004;28;19928;-65
2021/10/20 09:38:45;;;;;;;;;;;;;;;-142.75;100.00;75686.53;5010586;28;20457;-65
2021/10/20 09:41:10;;;;;;;;;;;;;;;-142.75;100.00;75688.50;5009697;28;21385;-66
2021/10/20 09:43:40;;;;;;;;;;;;;;;-142.75;100.00;75680.63;5010392;28;19924;-66
2021/10/20 09:46:05;;;;;;;;;;;;;;;-142.75;100.00;75680.63;5010306;28;19913;-66
2021/10/20 09:48:30;;;;;;;;;;;;;;;-142.75;100.00;75684.56;5010449;28;20404;-65
2021/10/20 09:51:04;;;;;;;;;;;;;;;-142.75;100.00;75672.78;5010073;28;19919;-66
2021/10/20 09:53:30;;;;;;;;;;;;;;;-142.75;100.00;75670.81;5010540;28;20004;-66
2021/10/20 09:55:57;;;;;;;;;;;;;;;-142.75;100.00;75639.31;5010469;28;19920;-65
2021/10/20 09:58:24;;;;;;;;;;;;;;;-142.75;100.00;75613.72;5010331;28;19917;-66
2021/10/20 10:00:52;;;;;;;;;;;;;;;-142.75;100.00;75566.50;5010402;28;19921;-66
2021/10/20 10:03:19;;;;;;;;;;;;;;;-142.75;100.00;75566.50;5009153;28;19956;-65
2021/10/20 10:05:44;;;;;;;;;;;;;;;-142.75;100.00;75570.44;5009789;28;19920;-65
2021/10/20 10:08:09;;;;;;;;;;;;;;;-142.75;100.00;75572.41;5010345;28;20306;-66
2021/10/20 10:10:34;;;;;;;;;;;;;;;-142.75;100.00;75570.44;5010390;28;19920;-65
2021/10/20 10:13:19;;;;;;;;;;;;;;;-142.75;100.00;75586.19;5005558;28;19959;-67
2021/10/20 10:15:45;;;;;;;;;;;;;;;-142.75;100.00;75605.84;5002623;28;19913;-66
2021/10/20 10:18:11;;;;;;;;;;;;;;;-142.75;100.00;75605.84;5010268;28;19917;-66
2021/10/20 10:20:38;;;;;;;;;;;;;;;-142.75;100.00;75617.66;5009873;28;19913;-65
2021/10/20 10:23:06;;;;;;;;;;;;;;;-142.75;100.00;75590.13;5010208;28;20367;-66
2021/10/20 10:25:33;;;;;;;;;;;;;;;-142.75;100.00;75596.00;5010151;28;19913;-66
2021/10/20 10:28:05;;;;;;;;;;;;;;;-142.75;100.00;75607.81;5010101;28;19920;-66
2021/10/20 10:30:32;;;;;;;;;;;;;;;-142.75;100.00;75613.72;5010196;28;19913;-66
2021/10/20 10:32:57;;;;;;;;;;;;;;;-142.75;100.00;75601.91;5008863;28;20008;-66
2021/10/20 10:35:25;;;;;;;;;;;;;;;-142.75;100.00;75609.78;5009798;28;20419;-66
2021/10/20 10:38:00;;;;;;;;;;;;;;;-142.75;100.00;75590.13;5010036;28;20280;-66
2021/10/20 10:40:31;;;;;;;;;;;;;;;-142.75;100.00;75599.94;5010021;28;20012;-65
2021/10/20 10:43:02;;;;;;;;;;;;;;;-142.75;100.00;75588.16;5009976;28;20363;-66
2021/10/20 10:45:29;;;;;;;;;;;;;;;-142.75;100.00;75574.38;5009808;28;19917;-66
2021/10/20 10:47:55;;;;;;;;;;;;;;;-142.75;100.00;75542.88;5008629;28;20302;-66
2021/10/20 10:50:21;;;;;;;;;;;;;;;-142.75;100.00;75533.03;5009726;28;20016;-66
2021/10/20 10:52:51;;;;;;;;;;;;;;;-142.75;100.00;75533.03;5010610;28;20462;-66
2021/10/20 10:55:18;;;;;;;;;;;;;;;-142.75;100.00;75527.13;5013025;28;20704;-66
2021/10/20 10:57:56;;;;;;;;;;;;;;;-142.75;100.00;75538.94;5011988;28;19929;-66
2021/10/20 11:00:21;;;;;;;;;;;;;;;-142.75;100.00;75535.00;4992657;28;19984;-66
2021/10/20 11:02:55;;;;;;;;;;;;;;;-142.75;100.00;75535.00;4993799;28;20380;-67
2021/10/20 11:05:20;;;;;;;;;;;;;;;-142.75;100.00;75533.03;4991962;28;20380;-67
2021/10/20 11:07:47;;;;;;;;;;;;;;;-142.75;100.00;75533.03;4993716;28;19914;-67
2021/10/20 11:10:13;;;;;;;;;;;;;;;-142.75;100.00;75535.00;4993547;28;19914;-67
2021/10/20 11:12:38;;;;;;;;;;;;;;;-142.75;100.00;75535.00;4993549;28;19924;-65
2021/10/20 11:15:05;;;;;;;;;;;;;;;-142.75;100.00;75552.72;4993187;28;20298;-67
2021/10/20 11:17:31;;;;;;;;;;;;;;;-142.75;100.00;75570.44;4993527;28;19918;-67
2021/10/20 11:19:56;;;;;;;;;;;;;;;-142.75;100.00;75564.53;4991945;28;19913;-67
2021/10/20 11:22:23;;;;;;;;;;;;;;;-142.75;100.00;75584.22;4993275;28;20578;-66
2021/10/20 11:24:49;;;;;;;;;;;;;;;-142.75;100.00;75578.31;4993054;28;19913;-66
2021/10/20 11:27:14;;;;;;;;;;;;;;;-142.75;100.00;75566.50;4992987;28;19914;-66
2021/10/20 11:29:47;;;;;;;;;;;;;;;-142.75;100.00;75570.44;4993217;28;19919;-67
2021/10/20 11:32:14;;;;;;;;;;;;;;;-142.75;100.00;75586.19;4993157;28;19913;-67
2021/10/20 11:34:39;;;;;;;;;;;;;;;-142.75;100.00;75574.38;4992719;28;19913;-66
2021/10/20 11:37:05;;;;;;;;;;;;;;;-142.75;100.00;75568.47;4992859;28;19979;-66
2021/10/20 11:39:31;;;;;;;;;;;;;;;-142.75;100.00;75550.75;4991962;28;19917;-66
2021/10/20 11:41:57;;;;;;;;;;;;;;;-142.75;100.00;75554.69;4992921;28;19913;-66
2021/10/20 11:44:32;;;;;;;;;;;;;;;-142.75;100.00;75566.50;4992672;28;19914;-66
2021/10/20 11:46:59;;;;;;;;;;;;;;;-142.75;100.00;75546.81;4992693;28;19920;-67
2021/10/20 11:49:25;;;;;;;;;;;;;;;-142.75;100.00;75546.81;4992630;28;19920;-67
2021/10/20 11:51:51;;;;;;;;;;;;;;;-142.75;100.00;75558.63;4992606;28;19918;-67
2021/10/20 11:54:17;;;;;;;;;;;;;;;-142.75;100.00;75554.69;4992671;28;20410;-66